Time;durP1;ratioP1;P1;durP2;ratioP2;P2;SDS_P1;SDS_P2;PMS_P1;PMS_P2;Temp;Humidity;BMP_temperature;BMP_pressure;BME280_temperature;BME280_humidity;BME280_pressure;Samples;Min_cycle;Max_cycle;Signal;HPM_P1;HPM_P2
2022/02/14 00:02:53;;;;;;;7.72;5.75;;;;;;;4.15;60.04;100068.00;2833053;84;21054;-68
2022/02/14 00:06:54;;;;;;;10.93;5.22;;;;;;;4.13;60.09;100062.84;2861202;82;21034;-68
2022/02/14 00:10:56;;;;;;;6.87;4.97;;;;;;;4.18;60.14;100063.04;2853864;82;21192;-69
2022/02/14 00:14:58;;;;;;;9.78;6.45;;;;;;;4.04;60.45;100062.05;2847272;82;21026;-68
2022/02/14 00:19:00;;;;;;;8.55;6.40;;;;;;;4.05;60.31;100072.13;2834640;84;21054;-68
2022/02/14 00:23:02;;;;;;;11.73;6.90;;;;;;;4.00;60.54;100069.27;2834125;83;21026;-68
2022/02/14 00:27:05;;;;;;;8.33;5.90;;;;;;;3.96;60.56;100062.49;2835210;83;21477;-69
2022/02/14 00:31:06;;;;;;;10.95;5.65;;;;;;;3.91;60.57;100052.71;2831437;84;21124;-69
2022/02/14 00:35:13;;;;;;;9.80;6.97;;;;;;;3.96;60.46;100062.49;2834502;83;21019;-67
2022/02/14 00:39:13;;;;;;;11.63;8.00;;;;;;;4.00;60.46;100057.91;2885288;82;21024;-68
2022/02/14 00:43:14;;;;;;;10.88;7.05;;;;;;;3.92;60.13;100054.86;2885395;82;21049;-69
2022/02/14 00:47:16;;;;;;;9.35;7.12;;;;;;;3.88;60.40;100055.52;2895961;82;21011;-68
2022/02/14 00:51:18;;;;;;;6.72;4.92;;;;;;;3.95;60.38;100063.92;2897759;82;21003;-69
2022/02/14 00:55:19;;;;;;;7.45;5.25;;;;;;;3.96;60.34;100055.91;2897992;81;20995;-69
2022/02/14 00:59:22;;;;;;;8.80;6.35;;;;;;;3.93;60.38;100052.60;2902021;81;20975;-68
2022/02/14 01:03:23;;;;;;;9.85;6.65;;;;;;;3.92;60.49;100049.59;2902028;81;21061;-69
2022/02/14 01:07:26;;;;;;;12.20;6.85;;;;;;;3.91;60.53;100051.84;2888278;81;21011;-69
2022/02/14 01:11:27;;;;;;;8.70;5.60;;;;;;;3.94;60.64;100054.33;2886263;82;21073;-68
2022/02/14 01:15:30;;;;;;;7.87;6.15;;;;;;;3.89;60.99;100042.74;2873856;82;21062;-69
2022/02/14 01:19:31;;;;;;;10.95;6.30;;;;;;;3.85;61.08;100038.12;2903300;81;20994;-69
2022/02/14 01:23:33;;;;;;;9.08;5.12;;;;;;;3.84;60.97;100031.16;2832586;83;21058;-69
2022/02/14 01:27:35;;;;;;;9.45;5.67;;;;;;;3.87;61.04;100030.15;2835149;82;21095;-69
2022/02/14 01:31:37;;;;;;;11.03;7.85;;;;;;;3.85;61.07;100028.08;2885966;82;21556;-69
2022/02/14 01:35:38;;;;;;;7.22;5.37;;;;;;;3.64;61.70;100023.56;2813274;84;21086;-69
2022/02/14 01:39:41;;;;;;;10.88;7.60;;;;;;;3.44;61.92;100016.34;2886006;82;21519;-69
2022/02/14 01:43:44;;;;;;;8.23;6.62;;;;;;;3.34;62.32;100008.12;2861070;83;21037;-69
2022/02/14 01:47:46;;;;;;;13.30;7.35;;;;;;;3.34;62.66;100000.23;2886351;82;20988;-69
2022/02/14 01:51:48;;;;;;;10.70;6.72;;;;;;;3.36;62.99;99993.11;2861554;83;21042;-69
2022/02/14 01:55:51;;;;;;;11.93;7.15;;;;;;;3.39;63.16;99984.20;2886227;82;21004;-69
2022/02/14 01:59:53;;;;;;;8.30;6.67;;;;;;;3.41;63.10;99994.17;2861181;83;21081;-68
2022/02/14 02:03:55;;;;;;;12.30;7.83;;;;;;;3.48;62.83;99979.72;2886219;82;21042;-69
2022/02/14 02:07:57;;;;;;;14.70;7.22;;;;;;;3.59;62.83;99974.33;2813016;84;21050;-68
2022/02/14 02:16:14;;;;;;;11.43;7.35;;;;;;;3.71;62.56;99961.77;2833574;84;21065;-68
2022/02/14 02:20:18;;;;;;;9.50;7.15;;;;;;;3.69;62.43;99959.69;2887875;82;20972;-68
2022/02/14 02:24:23;;;;;;;14.38;8.05;;;;;;;3.78;62.27;99955.22;2886580;82;20972;-68
2022/02/14 02:28:25;;;;;;;13.55;9.10;;;;;;;3.78;61.97;99946.02;2887561;82;21003;-68
2022/02/14 02:32:29;;;;;;;8.98;6.55;;;;;;;3.85;61.92;99935.98;2894264;82;20968;-69
2022/02/14 02:36:31;;;;;;;10.23;7.92;;;;;;;3.93;61.36;99938.98;2894557;82;21035;-68
2022/02/14 02:40:33;;;;;;;9.50;6.53;;;;;;;3.97;61.32;99933.08;2894430;82;21071;-69
2022/02/14 02:44:36;;;;;;;10.40;6.40;;;;;;;3.97;61.19;99925.18;2894136;82;21047;-68
2022/02/14 02:48:38;;;;;;;10.35;7.45;;;;;;;3.95;61.53;99925.27;2894577;82;21047;-69
2022/02/14 02:52:39;;;;;;;11.55;7.00;;;;;;;4.00;61.31;99921.05;2894535;82;21027;-69
2022/02/14 02:56:45;;;;;;;14.47;8.98;;;;;;;3.91;61.51;99916.32;2894051;82;21035;-68
2022/02/14 03:00:48;;;;;;;8.98;7.45;;;;;;;3.83;62.26;99914.14;2894825;82;21483;-69
2022/02/14 03:04:50;;;;;;;12.65;8.58;;;;;;;3.72;62.31;99909.52;2894529;82;20980;-69
2022/02/14 03:08:52;;;;;;;7.87;6.45;;;;;;;3.80;62.00;99913.02;2894297;82;21034;-69
2022/02/14 03:12:54;;;;;;;8.83;5.37;;;;;;;3.86;61.69;99922.71;2894416;82;21535;-68
2022/02/14 03:16:55;;;;;;;8.18;6.67;;;;;;;3.82;62.01;99918.58;2894496;82;21055;-69
2022/02/14 03:20:57;;;;;;;8.95;6.90;;;;;;;3.82;62.17;99909.82;2894439;82;21072;-69
2022/02/14 03:24:59;;;;;;;10.18;6.92;;;;;;;3.79;62.44;99908.23;2894332;82;21046;-68
2022/02/14 03:29:01;;;;;;;9.05;7.87;;;;;;;3.71;62.52;99902.11;2894027;82;21433;-68
2022/02/14 03:33:02;;;;;;;12.73;7.55;;;;;;;3.75;62.80;99897.53;2898696;82;21076;-68
2022/02/14 03:37:04;;;;;;;13.13;8.90;;;;;;;3.73;62.15;99902.00;2824074;83;21023;-68
2022/02/14 03:41:06;;;;;;;12.07;7.70;;;;;;;3.88;61.94;99905.98;2833050;83;21527;-69
2022/02/14 03:45:09;;;;;;;7.40;6.17;;;;;;;3.83;62.16;99888.69;2902940;82;21065;-68
2022/02/14 03:49:11;;;;;;;8.53;5.78;;;;;;;3.89;62.02;99895.83;2902980;82;21106;-69
2022/02/14 03:53:12;;;;;;;10.05;6.17;;;;;;;3.86;61.62;99887.19;2902938;82;20970;-68
2022/02/14 03:57:14;;;;;;;12.65;6.67;;;;;;;3.94;61.71;99887.21;2902333;82;21312;-68
2022/02/14 04:01:16;;;;;;;10.58;7.53;;;;;;;3.99;61.63;99887.77;2902860;82;21026;-68
2022/02/14 04:05:19;;;;;;;11.33;7.65;;;;;;;4.00;61.62;99888.14;2902479;82;20982;-69
2022/02/14 04:09:20;;;;;;;16.42;7.67;;;;;;;3.96;61.95;99879.58;2902636;82;20999;-69
2022/02/14 04:13:22;;;;;;;13.55;8.18;;;;;;;3.95;62.00;99884.47;2902303;81;21069;-69
2022/02/14 04:17:25;;;;;;;14.20;7.90;;;;;;;4.00;61.84;99876.30;2903027;82;21042;-69
2022/02/14 04:21:27;;;;;;;10.40;8.25;;;;;;;4.01;61.90;99879.31;2902693;82;20982;-68
2022/02/14 04:25:30;;;;;;;12.65;8.43;;;;;;;3.99;62.42;99886.45;2902234;82;21593;-69
2022/02/14 04:29:32;;;;;;;11.95;8.98;;;;;;;3.98;62.04;99882.13;2902967;81;21077;-69
2022/02/14 04:33:33;;;;;;;9.80;7.17;;;;;;;4.00;62.20;99880.25;2910574;81;21240;-68
2022/02/14 04:37:35;;;;;;;9.65;7.37;;;;;;;3.89;62.40;99867.75;2910587;81;21019;-69
2022/02/14 04:41:37;;;;;;;8.75;7.40;;;;;;;3.95;62.38;99861.27;2854238;83;21019;-69
2022/02/14 04:45:39;;;;;;;12.60;10.55;;;;;;;3.84;62.61;99861.92;2910083;81;21018;-69
2022/02/14 04:49:41;;;;;;;9.45;7.28;;;;;;;3.98;62.40;99858.45;2837773;83;20999;-69
2022/02/14 04:53:42;;;;;;;11.70;8.53;;;;;;;3.95;62.42;99862.59;2909314;81;21339;-69
2022/02/14 04:57:44;;;;;;;12.25;9.43;;;;;;;3.99;62.60;99855.70;2897989;82;21543;-69
2022/02/14 05:01:47;;;;;;;16.20;10.93;;;;;;;3.96;62.60;99856.38;2900754;81;21018;-69
2022/02/14 05:05:49;;;;;;;16.17;8.15;;;;;;;3.97;62.93;99852.81;2842330;83;21030;-70
2022/02/14 05:09:51;;;;;;;12.63;9.48;;;;;;;3.91;63.13;99854.48;2835023;83;21562;-69
2022/02/14 05:13:52;;;;;;;13.80;9.35;;;;;;;3.85;63.58;99851.77;2858018;82;21050;-69
2022/02/14 05:17:54;;;;;;;12.98;9.28;;;;;;;3.88;63.42;99849.41;2855529;82;21027;-66
2022/02/14 05:21:56;;;;;;;16.32;10.63;;;;;;;3.86;63.76;99849.03;2833232;84;21070;-66
2022/02/14 05:25:58;;;;;;;11.53;9.23;;;;;;;3.82;63.83;99843.59;2860110;82;21065;-69
2022/02/14 05:29:59;;;;;;;17.17;10.20;;;;;;;3.81;63.80;99845.84;2834932;83;21038;-70
2022/02/14 05:34:02;;;;;;;14.28;10.48;;;;;;;3.86;63.77;99842.45;2857204;82;21010;-69
2022/02/14 05:38:03;;;;;;;14.23;10.48;;;;;;;3.88;63.77;99844.14;2903467;81;21488;-68
2022/02/14 05:42:07;;;;;;;15.95;10.53;;;;;;;3.81;63.92;99840.58;2904278;81;21030;-67
2022/02/14 05:46:13;;;;;;;19.90;10.20;;;;;;;3.79;64.13;99849.04;2847111;83;21066;-67
2022/02/14 05:50:14;;;;;;;13.75;9.50;;;;;;;3.74;64.22;99848.48;2835705;83;21067;-67
2022/02/14 05:54:15;;;;;;;14.65;9.70;;;;;;;3.76;64.04;99831.27;2899763;81;21023;-67
2022/02/14 05:58:17;;;;;;;14.28;9.78;;;;;;;3.80;64.04;99836.72;2899581;81;21030;-67
2022/02/14 06:02:19;;;;;;;18.48;11.43;;;;;;;3.83;64.03;99826.86;2910812;81;21021;-67
2022/02/14 06:06:21;;;;;;;13.93;10.15;;;;;;;3.82;64.03;99823.85;2841680;82;21046;-68
2022/02/14 06:10:23;;;;;;;14.80;9.78;;;;;;;3.80;64.26;99818.30;2834740;84;21030;-67
2022/02/14 06:14:25;;;;;;;14.47;9.63;;;;;;;3.79;64.45;99809.58;2835119;84;21074;-67
2022/02/14 06:18:27;;;;;;;16.42;10.28;;;;;;;3.80;64.57;99826.19;2835052;84;20986;-67
2022/02/14 06:22:29;;;;;;;13.20;9.23;;;;;;;3.80;64.55;99828.82;2834988;84;21069;-67
2022/02/14 06:26:32;;;;;;;13.88;10.05;;;;;;;3.85;64.62;99841.25;2835227;82;21034;-67
2022/02/14 06:30:34;;;;;;;19.70;11.10;;;;;;;3.82;64.64;99828.25;2832472;84;21055;-67
2022/02/14 06:34:36;;;;;;;15.25;10.65;;;;;;;3.87;64.11;99827.52;2822597;84;21027;-67
2022/02/14 06:38:38;;;;;;;12.53;10.75;;;;;;;3.93;64.19;99835.48;2822849;84;21094;-67
2022/02/14 06:42:40;;;;;;;19.65;11.80;;;;;;;3.93;63.93;99831.09;2822596;83;21519;-67
2022/02/14 06:46:42;;;;;;;21.82;11.03;;;;;;;4.02;64.17;99833.63;2822558;84;21007;-67
2022/02/14 06:50:44;;;;;;;14.83;9.45;;;;;;;4.03;64.25;99833.14;2822557;84;20992;-68
2022/02/14 06:54:45;;;;;;;14.98;9.00;;;;;;;4.03;64.02;99839.27;2822520;84;21022;-67
2022/02/14 06:58:47;;;;;;;17.25;10.78;;;;;;;4.06;64.22;99828.53;2822832;84;21094;-67
2022/02/14 07:02:49;;;;;;;13.95;9.78;;;;;;;4.07;64.01;99834.17;2822662;84;21015;-67
2022/02/14 07:06:51;;;;;;;16.95;10.25;;;;;;;4.20;63.93;99837.38;2822077;84;21074;-67
2022/02/14 07:10:53;;;;;;;28.75;9.35;;;;;;;4.19;63.99;99842.27;2848563;83;21094;-67
2022/02/14 07:14:55;;;;;;;19.55;11.75;;;;;;;4.27;63.98;99843.94;2832176;83;21129;-68
2022/02/14 07:18:56;;;;;;;12.43;9.45;;;;;;;4.28;63.99;99838.58;2815293;84;21078;-68
2022/02/14 07:22:58;;;;;;;16.15;9.53;;;;;;;4.31;64.00;99841.47;2796974;85;21043;-67
2022/02/14 07:27:00;;;;;;;13.80;8.38;;;;;;;4.37;63.71;99854.73;2822209;84;21070;-67
2022/02/14 07:31:02;;;;;;;13.72;10.68;;;;;;;4.49;63.39;99835.53;2835824;83;21117;-67
2022/02/14 07:35:05;;;;;;;17.87;10.48;;;;;;;4.66;63.71;99834.92;2860979;83;21071;-67
2022/02/14 07:39:07;;;;;;;15.18;10.35;;;;;;;4.70;63.38;99830.66;2849620;83;20995;-67
2022/02/14 07:43:08;;;;;;;15.30;10.88;;;;;;;4.83;62.97;99827.23;2861199;83;21281;-67
2022/02/14 07:47:10;;;;;;;12.78;9.95;;;;;;;4.93;62.92;99835.39;2861178;83;20971;-67
2022/02/14 07:51:14;;;;;;;21.48;12.37;;;;;;;5.03;62.97;99823.77;2861242;83;20995;-68
2022/02/14 07:55:16;;;;;;;18.23;11.35;;;;;;;5.11;62.57;99820.13;2860850;83;21028;-67
2022/02/14 07:59:18;;;;;;;15.18;11.48;;;;;;;5.21;62.31;99819.91;2861249;83;20984;-68
2022/02/14 08:03:21;;;;;;;14.65;8.45;;;;;;;5.35;62.27;99814.18;2860896;83;21051;-68
2022/02/14 08:07:22;;;;;;;18.45;12.55;;;;;;;5.34;61.79;99809.86;2861448;83;21026;-67
2022/02/14 08:11:24;;;;;;;16.65;9.78;;;;;;;5.43;61.90;99805.27;2861297;83;21122;-67
2022/02/14 08:15:26;;;;;;;17.30;10.20;;;;;;;5.64;61.19;99799.45;2861102;83;21016;-68
2022/02/14 08:19:28;;;;;;;16.65;10.95;;;;;;;5.70;61.33;99799.05;2861140;83;21031;-68
2022/02/14 08:23:30;;;;;;;15.03;10.68;;;;;;;5.85;60.98;99795.32;2851159;83;21077;-68
2022/02/14 08:27:32;;;;;;;23.12;11.35;;;;;;;5.90;60.56;99807.38;2783039;84;21042;-68
2022/02/14 08:31:34;;;;;;;24.40;11.48;;;;;;;5.90;60.22;99782.30;2841657;83;21153;-68
2022/02/14 08:35:35;;;;;;;14.73;9.88;;;;;;;6.16;60.94;99807.36;2887488;82;21007;-68
2022/02/14 08:39:41;;;;;;;14.25;10.25;;;;;;;6.25;60.09;99789.05;2862058;83;21614;-68
2022/02/14 08:43:42;;;;;;;17.02;11.05;;;;;;;6.32;59.93;99782.00;2862201;83;21082;-68
2022/02/14 08:47:45;;;;;;;18.52;9.35;;;;;;;6.47;59.60;99790.61;2874441;82;21448;-68
2022/02/14 08:51:47;;;;;;;16.07;9.50;;;;;;;6.46;59.42;99782.31;2887886;82;21101;-69
2022/02/14 08:55:49;;;;;;;18.00;12.23;;;;;;;6.58;59.05;99785.39;2887269;82;21011;-67
2022/02/14 08:59:51;;;;;;;15.55;9.20;;;;;;;6.63;59.44;99779.28;2862103;83;21038;-67
2022/02/14 09:03:56;;;;;;;11.85;8.98;;;;;;;6.67;58.89;99782.06;2879697;82;21007;-67
2022/02/14 09:07:57;;;;;;;14.10;11.57;;;;;;;6.93;59.65;99777.98;2888982;82;20975;-68
2022/02/14 09:12:02;;;;;;;15.95;9.88;;;;;;;7.03;59.07;99765.37;2888117;82;21046;-68
2022/02/14 09:16:06;;;;;;;13.35;8.98;;;;;;;7.10;58.71;99762.65;2862701;83;21058;-68
2022/02/14 09:20:10;;;;;;;11.73;9.73;;;;;;;7.24;58.56;99765.56;2886382;82;21015;-67
2022/02/14 09:37:42;;;;;;;18.17;11.38;;;;;;;6.07;63.01;99746.80;3031282;77;23167;-66
2022/02/14 09:41:44;;;;;;;19.80;14.28;;;;;;;6.89;59.64;99728.94;2963596;80;20987;-66
2022/02/14 09:45:45;;;;;;;24.43;13.93;;;;;;;7.09;58.77;99740.63;2965218;80;21021;-65
2022/02/14 09:49:48;;;;;;;19.42;12.13;;;;;;;7.14;58.92;99727.89;2966141;80;21034;-66
2022/02/14 09:53:49;;;;;;;14.23;9.65;;;;;;;7.28;57.91;99716.27;2965973;79;21032;-65
2022/02/14 09:57:51;;;;;;;14.03;11.12;;;;;;;7.35;57.88;99724.55;2962607;80;21063;-66
2022/02/14 10:01:53;;;;;;;10.78;8.40;;;;;;;7.36;57.75;99714.83;2962679;80;21037;-65
2022/02/14 10:05:58;;;;;;;11.20;9.58;;;;;;;7.46;57.75;99721.06;2963067;80;21015;-65
2022/02/14 10:10:15;;;;;;;16.35;10.10;;;;;;;7.43;57.32;99705.44;2964023;80;21566;-65
2022/02/14 10:14:19;;;;;;;16.48;9.40;;;;;;;7.60;57.65;99713.86;2966971;79;21093;-65
2022/02/14 10:18:34;;;;;;;37.25;17.90;;;;;;;7.67;57.93;99708.47;2966057;79;21065;-65
2022/02/14 10:22:53;;;;;;;45.60;27.10;;;;;;;7.67;58.33;99704.00;2969702;80;21109;-65
2022/02/14 10:26:56;;;;;;;41.20;22.07;;;;;;;7.70;57.95;99692.34;2960709;79;21018;-65
2022/02/14 10:31:05;;;;;;;16.00;9.30;;;;;;;7.88;57.43;99693.16;2968355;79;21014;-65
2022/02/14 10:35:12;;;;;;;16.75;12.37;;;;;;;7.86;57.66;99694.13;2968489;80;21081;-65
2022/02/14 10:39:25;;;;;;;11.70;9.20;;;;;;;7.94;57.70;99686.86;2979532;79;21050;-65
2022/02/14 10:43:27;;;;;;;17.33;9.53;;;;;;;8.03;57.29;99676.50;2973321;79;21347;-65
2022/02/14 10:47:39;;;;;;;12.30;10.45;;;;;;;7.99;57.02;99681.20;2976101;79;21557;-68
2022/02/14 10:51:45;;;;;;;17.45;11.68;;;;;;;7.93;57.08;99661.84;2974345;80;21026;-68
2022/02/14 10:55:50;;;;;;;;;;;;;;;8.15;57.38;99661.77;2944675;80;20995;-66
2022/02/14 11:00:00;;;;;;;47.80;17.35;;;;;;;8.24;57.45;99655.34;2915407;81;20153;-65
2022/02/14 11:04:02;;;;;;;16.85;11.22;;;;;;;8.20;57.59;99647.30;2881135;82;21008;-65
2022/02/14 11:08:08;;;;;;;17.27;11.43;;;;;;;8.21;56.73;99631.76;2865972;83;21023;-66
2022/02/14 11:12:13;;;;;;;19.50;12.23;;;;;;;8.32;57.39;99637.02;2871974;83;21015;-64
2022/02/14 11:16:16;;;;;;;17.48;11.20;;;;;;;8.34;57.34;99632.91;2871260;82;21066;-66
2022/02/14 11:20:18;;;;;;;21.30;12.30;;;;;;;8.50;57.83;99631.19;2871433;82;21404;-64
2022/02/14 11:24:25;;;;;;;15.83;12.03;;;;;;;8.68;57.53;99625.67;2858319;82;21078;-65
2022/02/14 11:28:44;;;;;;;12.73;9.73;;;;;;;8.82;57.56;99624.48;2937723;80;21018;-66
2022/02/14 11:33:09;;;;;;;16.20;11.45;;;;;;;8.83;57.35;99622.19;2877231;82;21559;-66
2022/02/14 11:53:37;;;;;;;13.62;9.70;;;;;;;9.28;55.50;99601.11;2990937;77;24473;-68
2022/02/14 11:57:45;;;;;;;14.35;9.25;;;;;;;9.10;54.82;99604.03;2981614;80;21022;-68
2022/02/14 12:01:59;;;;;;;13.43;8.90;;;;;;;9.14;55.00;99608.09;2976965;80;20959;-68
2022/02/14 12:06:02;;;;;;;14.40;10.43;;;;;;;9.13;55.13;99605.91;2966449;80;20979;-70
2022/02/14 12:10:21;;;;;;;12.93;8.75;;;;;;;9.20;55.19;99607.55;2976624;80;21082;-69
2022/02/14 12:14:26;;;;;;;17.95;12.40;;;;;;;9.11;54.11;99593.77;2970417;80;21077;-69
2022/02/14 12:22:55;;;;;;;21.97;10.08;;;;;;;9.36;54.18;99606.22;2982855;80;21053;-70
2022/02/14 12:27:00;;;;;;;15.78;12.15;;;;;;;9.46;54.49;99611.09;2948022;80;21023;-69
2022/02/14 12:31:07;;;;;;;19.17;11.43;;;;;;;9.50;55.51;99597.89;2971095;78;21050;-68
2022/02/14 12:35:09;;;;;;;15.72;10.72;;;;;;;9.66;54.69;99603.17;2931295;81;21101;-67
2022/02/14 12:39:11;;;;;;;16.07;11.93;;;;;;;9.75;53.74;99594.36;2932154;80;20994;-67
2022/02/14 12:43:22;;;;;;;12.58;11.20;;;;;;;9.69;54.30;99588.28;2932009;81;21022;-68
2022/02/14 12:47:27;;;;;;;15.75;11.43;;;;;;;9.73;54.33;99571.09;2953205;80;21010;-71
2022/02/14 12:51:32;;;;;;;19.27;12.65;;;;;;;9.78;54.13;99567.52;2963408;79;21050;-70
2022/02/14 12:55:34;;;;;;;15.20;10.70;;;;;;;9.82;53.90;99560.95;2972260;80;21543;-71
2022/02/14 12:59:35;;;;;;;12.63;10.85;;;;;;;9.85;53.79;99551.87;2973821;80;21011;-72
2022/02/14 13:03:37;;;;;;;15.30;11.08;;;;;;;9.90;53.76;99540.84;2978510;80;20998;-69
2022/02/14 13:07:39;;;;;;;19.40;11.78;;;;;;;9.83;54.29;99529.45;2983511;80;21006;-69
2022/02/14 13:11:41;;;;;;;23.02;11.73;;;;;;;9.78;53.44;99525.03;2983790;80;21061;-70
2022/02/14 13:15:44;;;;;;;17.25;11.38;;;;;;;9.86;53.98;99531.83;2979868;80;20983;-69
2022/02/14 13:19:58;;;;;;;23.90;14.03;;;;;;;9.91;54.66;99523.92;2983678;80;20998;-70
2022/02/14 13:24:00;;;;;;;12.82;9.83;;;;;;;9.93;54.81;99521.96;2972818;80;20967;-76
2022/02/14 13:28:01;;;;;;;13.78;9.80;;;;;;;9.94;53.97;99515.66;2982488;80;20998;-71
2022/02/14 13:32:04;;;;;;;16.00;10.28;;;;;;;9.96;52.82;99512.38;2977402;80;20971;-69
2022/02/14 13:36:06;;;;;;;22.17;15.00;;;;;;;10.00;53.46;99517.75;2983651;80;20954;-68
2022/02/14 13:40:31;;;;;;;28.83;16.95;;;;;;;10.06;54.64;99522.52;2944607;80;20987;-68
2022/02/14 13:44:33;;;;;;;18.00;14.03;;;;;;;10.05;55.67;99519.52;2975077;80;21035;-69
2022/02/14 13:48:45;;;;;;;17.70;10.78;;;;;;;10.12;55.85;99519.29;2980002;80;21025;-68
2022/02/14 13:52:47;;;;;;;25.43;19.40;;;;;;;10.22;54.13;99517.95;2983201;78;21042;-71
2022/02/14 13:56:50;;;;;;;23.52;17.57;;;;;;;10.20;54.95;99515.92;2946190;80;20998;-68
2022/02/14 14:00:52;;;;;;;16.60;13.83;;;;;;;10.13;55.31;99522.30;2931618;81;21002;-69
2022/02/14 14:05:19;;;;;;;15.72;11.93;;;;;;;10.09;55.63;99525.36;2971107;80;21077;-73
2022/02/14 14:09:22;;;;;;;16.57;13.75;;;;;;;10.04;55.70;99523.63;2972726;80;21015;-68
2022/02/14 14:13:41;;;;;;;15.00;10.88;;;;;;;9.96;54.48;99524.33;2974339;80;21034;-74
2022/02/14 14:17:42;;;;;;;11.10;8.05;;;;;;;9.97;54.63;99521.55;2972259;78;21003;-69
2022/02/14 14:21:44;;;;;;;13.43;10.38;;;;;;;9.92;55.66;99517.62;2978054;80;21715;-70
2022/02/14 14:25:46;;;;;;;12.53;9.73;;;;;;;9.87;55.11;99518.04;2958425;80;21038;-69
2022/02/14 14:29:48;;;;;;;11.60;9.23;;;;;;;9.91;54.79;99512.79;2930870;81;21054;-70
2022/02/14 14:33:49;;;;;;;10.10;7.75;;;;;;;9.90;54.06;99506.30;2930756;81;21134;-68
2022/02/14 14:37:51;;;;;;;12.15;9.70;;;;;;;9.84;54.59;99505.05;2931028;81;21041;-70
2022/02/14 14:41:52;;;;;;;10.43;8.80;;;;;;;9.70;54.81;99494.36;2931293;81;21004;-70
2022/02/14 14:45:55;;;;;;;22.45;13.22;;;;;;;9.73;54.68;99502.04;2930842;81;21086;-70
2022/02/14 14:49:58;;;;;;;20.85;14.47;;;;;;;9.67;54.50;99501.28;2903268;80;21010;-70
2022/02/14 14:54:00;;;;;;;18.60;12.43;;;;;;;9.57;55.15;99492.80;2902263;80;20983;-70
2022/02/14 14:58:02;;;;;;;18.92;11.38;;;;;;;9.42;54.48;99504.33;2952559;80;21031;-70
2022/02/14 15:02:04;;;;;;;17.37;11.73;;;;;;;9.34;55.39;99498.02;2950240;80;21028;-68
2022/02/14 15:06:06;;;;;;;33.45;19.15;;;;;;;9.25;55.41;99501.01;2951264;80;21004;-67
2022/02/14 15:10:09;;;;;;;22.32;15.30;;;;;;;9.22;55.74;99503.44;2942423;80;21075;-72
2022/02/14 15:14:10;;;;;;;33.95;24.95;;;;;;;9.04;55.81;99507.24;2936411;80;21015;-70
2022/02/14 15:18:17;;;;;;;23.30;13.88;;;;;;;8.97;55.77;99508.77;2937787;81;20972;-68
2022/02/14 15:22:18;;;;;;;17.00;13.72;;;;;;;8.82;56.25;99512.25;2937010;81;21023;-68
2022/02/14 15:26:20;;;;;;;39.78;23.60;;;;;;;8.68;56.01;99511.66;2945435;80;21522;-68
2022/02/14 15:30:21;;;;;;;84.00;46.33;;;;;;;8.64;55.33;99522.15;2951266;80;20956;-69
2022/02/14 15:34:23;;;;;;;30.35;16.77;;;;;;;8.49;56.28;99508.88;2951291;80;21011;-68
2022/02/14 15:38:26;;;;;;;19.42;10.95;;;;;;;8.27;56.91;99502.77;2951229;80;21027;-68
2022/02/14 15:42:28;;;;;;;25.08;15.70;;;;;;;8.15;57.54;99506.80;2950614;80;21039;-69
2022/02/14 15:46:30;;;;;;;30.32;20.05;;;;;;;8.06;58.08;99499.63;2950791;80;21038;-68
2022/02/14 15:50:32;;;;;;;30.30;21.33;;;;;;;7.95;58.11;99500.50;2953446;78;21094;-68
2022/02/14 15:54:34;;;;;;;32.50;23.25;;;;;;;7.82;58.35;99495.40;2973138;80;21078;-68
2022/02/14 15:58:36;;;;;;;37.93;27.45;;;;;;;7.74;58.86;99497.00;2929005;80;21062;-68
2022/02/14 16:02:38;;;;;;;37.50;25.25;;;;;;;7.58;59.38;99499.11;2928928;81;21053;-68
2022/02/14 16:06:42;;;;;;;42.88;26.12;;;;;;;7.38;59.77;99497.25;2929211;81;20999;-68
2022/02/14 16:10:43;;;;;;;37.73;24.02;;;;;;;7.23;59.89;99500.17;2928944;81;21030;-68
2022/02/14 16:14:45;;;;;;;52.88;31.33;;;;;;;7.14;60.03;99504.39;2928825;81;21085;-68
2022/02/14 16:18:46;;;;;;;37.55;26.25;;;;;;;7.01;60.45;99498.42;2929096;81;21594;-67
2022/02/14 16:22:52;;;;;;;78.37;44.25;;;;;;;6.85;61.39;99504.06;2928989;81;21042;-68
2022/02/14 16:26:55;;;;;;;158.72;81.97;;;;;;;6.79;61.20;99505.41;2968251;80;21014;-74
2022/02/14 16:30:57;;;;;;;142.03;68.75;;;;;;;6.70;61.92;99507.44;2983016;80;21014;-70
2022/02/14 16:35:00;;;;;;;66.65;41.75;;;;;;;6.53;62.65;99504.80;2981730;80;21058;-72
2022/02/14 16:39:01;;;;;;;61.55;36.60;;;;;;;6.43;63.12;99506.81;2978204;80;21019;-73
2022/02/14 16:43:05;;;;;;;51.58;34.45;;;;;;;6.39;62.97;99510.66;2970015;80;20971;-74
2022/02/14 16:47:07;;;;;;;32.67;21.82;;;;;;;6.20;63.63;99513.03;2971372;80;21011;-67
2022/02/14 16:51:14;;;;;;;40.15;24.27;;;;;;;6.20;63.53;99516.52;2972782;80;20968;-70
2022/02/14 16:55:14;;;;;;;25.88;19.02;;;;;;;6.13;63.95;99520.10;2944550;80;21012;-69
2022/02/14 16:59:16;;;;;;;44.35;27.15;;;;;;;6.03;64.51;99521.73;2943381;80;21019;-72
2022/02/14 17:03:17;;;;;;;33.13;19.37;;;;;;;6.00;64.76;99529.40;2947132;80;20995;-71
2022/02/14 17:07:19;;;;;;;27.62;19.75;;;;;;;5.78;65.32;99516.95;2945269;80;20952;-71
2022/02/14 17:11:20;;;;;;;32.28;19.35;;;;;;;5.74;65.42;99518.14;2949753;80;21014;-73
2022/02/14 17:15:22;;;;;;;21.27;14.98;;;;;;;5.66;65.57;99516.53;2950795;80;21053;-75
2022/02/14 17:19:24;;;;;;;28.67;18.75;;;;;;;5.58;65.33;99510.03;2945780;80;21058;-70
2022/02/14 17:23:26;;;;;;;71.95;40.05;;;;;;;5.59;65.28;99517.45;2947943;80;21055;-69
2022/02/14 17:27:27;;;;;;;340.18;173.57;;;;;;;5.56;65.54;99516.36;2906476;80;21003;-69
2022/02/14 17:31:29;;;;;;;224.50;105.70;;;;;;;5.49;65.69;99515.97;2942582;80;21054;-69
2022/02/14 17:35:32;;;;;;;59.10;31.85;;;;;;;5.55;65.23;99519.95;2950686;80;21042;-70
2022/02/14 17:39:34;;;;;;;79.25;37.50;;;;;;;5.56;64.74;99513.72;2951151;80;20975;-73
2022/02/14 17:43:38;;;;;;;48.13;25.30;;;;;;;5.68;64.54;99508.88;2950666;80;21054;-69
2022/02/14 17:47:40;;;;;;;64.80;29.37;;;;;;;5.76;63.97;99509.62;2951010;80;20983;-68
2022/02/14 17:51:42;;;;;;;38.25;22.17;;;;;;;5.78;64.03;99502.44;2947509;80;21344;-69
2022/02/14 17:55:43;;;;;;;30.17;20.70;;;;;;;5.81;63.88;99504.84;2944255;80;21583;-69
2022/02/14 17:59:45;;;;;;;46.92;25.62;;;;;;;5.82;64.20;99502.56;2944687;80;20992;-67
2022/02/14 18:03:48;;;;;;;38.67;21.07;;;;;;;5.89;63.92;99500.31;2948362;80;20995;-67
2022/02/14 18:07:50;;;;;;;36.33;21.48;;;;;;;5.85;64.12;99502.83;2952162;80;21027;-68
2022/02/14 18:11:56;;;;;;;43.98;27.87;;;;;;;5.75;64.81;99497.39;2951052;80;21418;-67
2022/02/14 18:15:55;;;;;;;44.73;25.50;;;;;;;5.70;64.68;99498.22;2958445;80;21009;-68
2022/02/14 18:19:57;;;;;;;45.92;25.75;;;;;;;5.78;64.59;99496.30;2959131;80;21046;-68
2022/02/14 18:24:00;;;;;;;44.27;28.05;;;;;;;5.73;64.51;99494.03;2958290;80;21051;-67
2022/02/14 18:28:04;;;;;;;38.08;24.82;;;;;;;5.70;64.69;99491.13;2933349;80;21042;-68
2022/02/14 18:32:28;;;;;;;30.82;20.27;;;;;;;5.67;64.70;99498.42;2950486;80;21024;-68
2022/02/14 18:36:30;;;;;;;31.15;21.05;;;;;;;5.58;64.84;99483.64;2838990;84;21062;-67
2022/02/14 18:40:31;;;;;;;23.83;17.45;;;;;;;5.56;64.87;99478.11;2794171;85;21045;-66
2022/02/14 18:44:33;;;;;;;36.73;20.97;;;;;;;5.56;64.87;99476.33;2794027;85;21592;-66
2022/02/14 18:48:35;;;;;;;29.57;18.95;;;;;;;5.67;64.48;99475.98;2838828;83;21030;-66
2022/02/14 18:52:42;;;;;;;22.65;16.70;;;;;;;5.71;64.17;99478.30;2794316;85;21022;-66
2022/02/14 18:56:40;;;;;;;27.85;18.65;;;;;;;5.70;64.20;99473.97;2825211;83;21053;-67
2022/02/14 19:00:42;;;;;;;24.52;17.02;;;;;;;5.76;63.93;99468.72;2831019;83;21046;-66
2022/02/14 19:04:43;;;;;;;21.50;17.27;;;;;;;5.78;63.96;99468.13;2794690;85;20990;-66
2022/02/14 19:08:45;;;;;;;22.30;15.98;;;;;;;5.81;64.11;99466.57;2793926;85;21035;-66
2022/02/14 19:12:47;;;;;;;30.65;17.95;;;;;;;5.69;64.03;99468.80;2793961;85;21055;-66
2022/02/14 19:16:52;;;;;;;26.17;17.20;;;;;;;5.85;63.79;99479.07;2793806;85;20989;-66
2022/02/14 19:20:52;;;;;;;30.25;19.50;;;;;;;5.86;63.94;99503.19;2839141;84;21062;-66
2022/02/14 19:24:54;;;;;;;26.02;15.28;;;;;;;5.80;64.25;99508.44;2830994;84;21035;-67
2022/02/14 19:28:56;;;;;;;23.83;16.85;;;;;;;5.75;64.71;99507.09;2794433;85;21065;-66
2022/02/14 19:37:23;;;;;;;25.08;16.67;;;;;;;5.70;64.36;99492.94;2788402;85;21080;-66
2022/02/14 19:41:24;;;;;;;24.37;18.37;;;;;;;5.76;64.40;99494.26;2787784;85;21028;-66